DucheSS Of Scandinavia — OUZI2 — position and weather

sailwx.info

Track history (hours):
 
Tides and Currents Weather Stations Pressure Air Temp Water Temp Dewpoint Dewpoint Depression Visibility Wind Speed Wind Dir Waves Ship Positions

DucheSS Of Scandinavia

Operator: DFDS A/S

Last reported at 2016-Sep-30 17:34 UTC. Time now 2016-Sep-30 18:35 UTC.
Position N 59°01' E 010°41'.

Length 134 m; draft 5.2 m.

Type: Passenger vessel. MMSI: 219002929.

Date/timePositionNaut miles runAvg speedWind from/ knotsBaromVisibWave heightAir tempDewpointWater temp
2016-Sep-30 17:34N 59°01' E 010°41'1414.2
2016-Sep-30 16:33N 58°56' E 011°07'17 8.3
2016-Sep-30 14:33N 58°60' E 010°36'1312.8
2016-Sep-30 13:34N 59°06' E 010°14'22 7.5
2016-Sep-30 10:34N 59°00' E 010°56'2 0.9
2016-Sep-30 08:34N 58°59' E 010°59'2512.3
2016-Sep-30 06:34N 59°07' E 010°14'1 0.4
2016-Sep-30 03:32N 59°06' E 010°14'0 0.0
2016-Sep-30 02:33N 59°06' E 010°14'0 0.0
2016-Sep-29 23:32N 59°06' E 010°14'0 0.0
2016-Sep-29 21:33N 59°06' E 010°14'0 0.0
2016-Sep-29 20:31N 59°06' E 010°14'0 0.0
2016-Sep-29 19:28N 59°06' E 010°14'0 0.0
2016-Sep-29 16:30N 59°06' E 010°14'0 0.0
2016-Sep-29 15:31N 59°06' E 010°14'0 0.0
2016-Sep-29 14:34N 59°06' E 010°14'0 0.0
2016-Sep-29 13:34N 59°06' E 010°14'25 4.9
2016-Sep-29 08:33N 58°59' E 010°60'1515.2
2016-Sep-29 07:34N 58°59' E 010°30'11 1.6
2016-Sep-29 00:29N 59°06' E 010°14'0 0.0
2016-Sep-28 21:31N 59°06' E 010°14'1 0.3
2016-Sep-28 19:34N 59°07' E 010°14'30 9.9
2016-Sep-28 16:33N 58°56' E 011°07'3 2.8
2016-Sep-28 15:34N 58°58' E 011°03'27 9.1
2016-Sep-28 12:34N 59°08' E 010°14'27 6.7
2016-Sep-28 08:34N 58°58' E 011°02'26 5.2
2016-Sep-28 03:29N 59°06' E 010°14'0 0.0
2016-Sep-28 02:33N 59°06' E 010°14'0 0.0
2016-Sep-28 01:33N 59°06' E 010°14'0 0.0
2016-Sep-27 23:34N 59°06' E 010°14'1 0.1
2016-Sep-27 19:33N 59°07' E 010°14'13 2.6
2016-Sep-27 14:33N 59°01' E 010°37'1312.8
2016-Sep-27 13:34N 59°06' E 010°14'22 7.4
2016-Sep-27 10:34N 59°00' E 010°56'22 2.2
2016-Sep-27 00:31N 59°06' E 010°14'0 0.0
2016-Sep-26 20:28N 59°06' E 010°14'0 0.0
2016-Sep-26 19:34N 59°06' E 010°14'27 6.8
2016-Sep-26 15:33N 58°57' E 011°04'2713.6
2016-Sep-26 13:33N 59°06' E 010°14'8 4.2
2016-Sep-26 11:34N 59°01' E 010°27'18 6.0
2016-Sep-26 08:33N 58°59' E 011°01'26 4.2
2016-Sep-26 02:31N 59°06' E 010°14'0 0.0
2016-Sep-26 01:31N 59°06' E 010°14'0 0.0
2016-Sep-26 00:32N 59°06' E 010°14'0 0.0
2016-Sep-25 21:31N 59°06' E 010°14'14 3.6
2016-Sep-25 17:34N 59°01' E 010°40'1515.3
2016-Sep-25 16:34N 58°56' E 011°08'3 2.7
2016-Sep-25 15:34N 58°57' E 011°03'1515.0
2016-Sep-25 14:34N 59°01' E 010°35'13 6.4
2016-Sep-25 12:34N 59°08' E 010°14'1010.0
2016-Sep-25 11:34N 59°01' E 010°28'1414.0
2016-Sep-25 10:34N 59°00' E 010°55'9 9.1
2016-Sep-25 09:34N 58°56' E 011°10'2010.1
2016-Sep-25 07:34N 59°00' E 010°32'11 3.7
2016-Sep-25 04:34N 59°06' E 010°14'0 0.0
2016-Sep-25 00:29N 59°06' E 010°14'0 0.0
2016-Sep-24 22:30N 59°06' E 010°14'0 0.0
2016-Sep-24 21:31N 59°06' E 010°14'0 0.0
2016-Sep-24 19:33N 59°06' E 010°14'1 1.0
2016-Sep-24 18:34N 59°05' E 010°15'1413.8
2016-Sep-24 17:33N 59°01' E 010°40'1515.0
2016-Sep-24 16:34N 58°56' E 011°07'16 7.8
2016-Sep-24 14:34N 59°01' E 010°39'14 7.2
2016-Sep-24 12:34N 59°08' E 010°14'2311.4
2016-Sep-24 10:34N 59°00' E 010°56'9 8.7
2016-Sep-24 09:34N 58°56' E 011°10'31 5.1
2016-Sep-24 03:31N 59°06' E 010°14'0 0.0
2016-Sep-24 02:32N 59°06' E 010°14'0 0.0
2016-Sep-24 01:32N 59°06' E 010°14'0 0.0
2016-Sep-24 00:30N 59°06' E 010°14'0 0.0
2016-Sep-23 19:34N 59°06' E 010°14'14 7.2
2016-Sep-23 17:34N 59°02' E 010°40'1515.1
2016-Sep-23 16:34N 58°56' E 011°07'2 1.8
2016-Sep-23 15:33N 58°57' E 011°04'2813.8
2016-Sep-23 13:34N 59°06' E 010°14'31 7.7
2016-Sep-23 09:34N 58°56' E 011°10'3110.4
2016-Sep-23 06:34N 59°07' E 010°14'1 0.5
2016-Sep-23 04:32N 59°06' E 010°14'0 0.0
2016-Sep-23 03:32N 59°06' E 010°14'0 0.0
2016-Sep-23 02:33N 59°06' E 010°14'0 0.0
2016-Sep-23 01:31N 59°06' E 010°14'0 0.0
2016-Sep-23 00:31N 59°06' E 010°14'0 0.0
2016-Sep-22 23:32N 59°06' E 010°14'0 0.0
2016-Sep-22 20:28N 59°06' E 010°14'1 0.2
2016-Sep-22 12:34N 59°08' E 010°14'1 0.2
2016-Sep-22 04:31N 59°06' E 010°14'0 0.0
2016-Sep-22 03:31N 59°06' E 010°14'0 0.0
2016-Sep-22 00:33N 59°06' E 010°14'0 0.0
2016-Sep-21 23:31N 59°06' E 010°14'0 0.0
2016-Sep-21 22:23N 59°06' E 010°14'0 0.0
2016-Sep-21 19:34N 59°06' E 010°14'3010.0
2016-Sep-21 16:33N 58°56' E 011°09'1 0.1
2016-Sep-21 09:33N 58°56' E 011°10'5 4.8
2016-Sep-21 08:33N 58°58' E 011°02'26 8.7
2016-Sep-21 05:34N 59°06' E 010°14'0 0.0
2016-Sep-21 03:31N 59°06' E 010°14'0 0.0
2016-Sep-21 02:32N 59°06' E 010°14'  
Track history (hours):
 
Tides and Currents Weather Stations Pressure Air Temp Water Temp Dewpoint Dewpoint Depression Visibility Wind Speed Wind Dir Waves Ship Positions

DucheSS Of Scandinavia

Operator: DFDS A/S

Last reported at 2016-Sep-30 17:34 UTC. Time now 2016-Sep-30 18:35 UTC.
Position N 59°01' E 010°41'.

Length 134 m; draft 5.2 m.

Type: Passenger vessel. MMSI: 219002929.

Date/timePositionNaut miles runAvg speedWind from/ knotsBaromVisibWave heightAir tempDewpointWater temp
2016-Sep-30 17:34N 59°01' E 010°41'1414.2
2016-Sep-30 16:33N 58°56' E 011°07'17 8.3
2016-Sep-30 14:33N 58°60' E 010°36'1312.8
2016-Sep-30 13:34N 59°06' E 010°14'22 7.5
2016-Sep-30 10:34N 59°00' E 010°56'2 0.9
2016-Sep-30 08:34N 58°59' E 010°59'2512.3
2016-Sep-30 06:34N 59°07' E 010°14'1 0.4
2016-Sep-30 03:32N 59°06' E 010°14'0 0.0
2016-Sep-30 02:33N 59°06' E 010°14'0 0.0
2016-Sep-29 23:32N 59°06' E 010°14'0 0.0
2016-Sep-29 21:33N 59°06' E 010°14'0 0.0
2016-Sep-29 20:31N 59°06' E 010°14'0 0.0
2016-Sep-29 19:28N 59°06' E 010°14'0 0.0
2016-Sep-29 16:30N 59°06' E 010°14'0 0.0
2016-Sep-29 15:31N 59°06' E 010°14'0 0.0
2016-Sep-29 14:34N 59°06' E 010°14'0 0.0
2016-Sep-29 13:34N 59°06' E 010°14'25 4.9
2016-Sep-29 08:33N 58°59' E 010°60'1515.2
2016-Sep-29 07:34N 58°59' E 010°30'11 1.6
2016-Sep-29 00:29N 59°06' E 010°14'0 0.0
2016-Sep-28 21:31N 59°06' E 010°14'1 0.3
2016-Sep-28 19:34N 59°07' E 010°14'30 9.9
2016-Sep-28 16:33N 58°56' E 011°07'3 2.8
2016-Sep-28 15:34N 58°58' E 011°03'27 9.1
2016-Sep-28 12:34N 59°08' E 010°14'27 6.7
2016-Sep-28 08:34N 58°58' E 011°02'26 5.2
2016-Sep-28 03:29N 59°06' E 010°14'0 0.0
2016-Sep-28 02:33N 59°06' E 010°14'0 0.0
2016-Sep-28 01:33N 59°06' E 010°14'0 0.0
2016-Sep-27 23:34N 59°06' E 010°14'1 0.1
2016-Sep-27 19:33N 59°07' E 010°14'13 2.6
2016-Sep-27 14:33N 59°01' E 010°37'1312.8
2016-Sep-27 13:34N 59°06' E 010°14'22 7.4
2016-Sep-27 10:34N 59°00' E 010°56'22 2.2
2016-Sep-27 00:31N 59°06' E 010°14'0 0.0
2016-Sep-26 20:28N 59°06' E 010°14'0 0.0
2016-Sep-26 19:34N 59°06' E 010°14'27 6.8
2016-Sep-26 15:33N 58°57' E 011°04'2713.6
2016-Sep-26 13:33N 59°06' E 010°14'8 4.2
2016-Sep-26 11:34N 59°01' E 010°27'18 6.0
2016-Sep-26 08:33N 58°59' E 011°01'26 4.2
2016-Sep-26 02:31N 59°06' E 010°14'0 0.0
2016-Sep-26 01:31N 59°06' E 010°14'0 0.0
2016-Sep-26 00:32N 59°06' E 010°14'0 0.0
2016-Sep-25 21:31N 59°06' E 010°14'14 3.6
2016-Sep-25 17:34N 59°01' E 010°40'1515.3
2016-Sep-25 16:34N 58°56' E 011°08'3 2.7
2016-Sep-25 15:34N 58°57' E 011°03'1515.0
2016-Sep-25 14:34N 59°01' E 010°35'13 6.4
2016-Sep-25 12:34N 59°08' E 010°14'1010.0
2016-Sep-25 11:34N 59°01' E 010°28'1414.0
2016-Sep-25 10:34N 59°00' E 010°55'9 9.1
2016-Sep-25 09:34N 58°56' E 011°10'2010.1
2016-Sep-25 07:34N 59°00' E 010°32'11 3.7
2016-Sep-25 04:34N 59°06' E 010°14'0 0.0
2016-Sep-25 00:29N 59°06' E 010°14'0 0.0
2016-Sep-24 22:30N 59°06' E 010°14'0 0.0
2016-Sep-24 21:31N 59°06' E 010°14'0 0.0
2016-Sep-24 19:33N 59°06' E 010°14'1 1.0
2016-Sep-24 18:34N 59°05' E 010°15'1413.8
2016-Sep-24 17:33N 59°01' E 010°40'1515.0
2016-Sep-24 16:34N 58°56' E 011°07'16 7.8
2016-Sep-24 14:34N 59°01' E 010°39'14 7.2
2016-Sep-24 12:34N 59°08' E 010°14'2311.4
2016-Sep-24 10:34N 59°00' E 010°56'9 8.7
2016-Sep-24 09:34N 58°56' E 011°10'31 5.1
2016-Sep-24 03:31N 59°06' E 010°14'0 0.0
2016-Sep-24 02:32N 59°06' E 010°14'0 0.0
2016-Sep-24 01:32N 59°06' E 010°14'0 0.0
2016-Sep-24 00:30N 59°06' E 010°14'0 0.0
2016-Sep-23 19:34N 59°06' E 010°14'14 7.2
2016-Sep-23 17:34N 59°02' E 010°40'1515.1
2016-Sep-23 16:34N 58°56' E 011°07'2 1.8
2016-Sep-23 15:33N 58°57' E 011°04'2813.8
2016-Sep-23 13:34N 59°06' E 010°14'31 7.7
2016-Sep-23 09:34N 58°56' E 011°10'3110.4
2016-Sep-23 06:34N 59°07' E 010°14'1 0.5
2016-Sep-23 04:32N 59°06' E 010°14'0 0.0
2016-Sep-23 03:32N 59°06' E 010°14'0 0.0
2016-Sep-23 02:33N 59°06' E 010°14'0 0.0
2016-Sep-23 01:31N 59°06' E 010°14'0 0.0
2016-Sep-23 00:31N 59°06' E 010°14'0 0.0
2016-Sep-22 23:32N 59°06' E 010°14'0 0.0
2016-Sep-22 20:28N 59°06' E 010°14'1 0.2
2016-Sep-22 12:34N 59°08' E 010°14'1 0.2
2016-Sep-22 04:31N 59°06' E 010°14'0 0.0
2016-Sep-22 03:31N 59°06' E 010°14'0 0.0
2016-Sep-22 00:33N 59°06' E 010°14'0 0.0
2016-Sep-21 23:31N 59°06' E 010°14'0 0.0
2016-Sep-21 22:23N 59°06' E 010°14'0 0.0
2016-Sep-21 19:34N 59°06' E 010°14'3010.0
2016-Sep-21 16:33N 58°56' E 011°09'1 0.1
2016-Sep-21 09:33N 58°56' E 011°10'5 4.8
2016-Sep-21 08:33N 58°58' E 011°02'26 8.7
2016-Sep-21 05:34N 59°06' E 010°14'0 0.0
2016-Sep-21 03:31N 59°06' E 010°14'0 0.0
2016-Sep-21 02:32N 59°06' E 010°14'  

Dump ship's entire track history